sensor_id;sensor_type;location;lat;lon;timestamp;temperature;humidity
55693;DHT22;41590;53.366;5.212;2022-08-19T00:01:04;17.10;99.90
55693;DHT22;41590;53.366;5.212;2022-08-19T00:06:39;17.10;99.90
55693;DHT22;41590;53.366;5.212;2022-08-19T00:12:03;17.20;99.90
55693;DHT22;41590;53.366;5.212;2022-08-19T00:14:51;17.20;99.90
55693;DHT22;41590;53.366;5.212;2022-08-19T00:17:45;17.20;99.90
55693;DHT22;41590;53.366;5.212;2022-08-19T00:23:31;17.20;99.90
55693;DHT22;41590;53.366;5.212;2022-08-19T00:26:00;17.20;99.90
55693;DHT22;41590;53.366;5.212;2022-08-19T00:28:38;17.20;99.90
55693;DHT22;41590;53.366;5.212;2022-08-19T00:31:06;17.20;99.90
55693;DHT22;41590;53.366;5.212;2022-08-19T00:33:32;17.20;99.90
55693;DHT22;41590;53.366;5.212;2022-08-19T00:36:18;17.20;99.90
55693;DHT22;41590;53.366;5.212;2022-08-19T00:39:03;17.30;99.90
55693;DHT22;41590;53.366;5.212;2022-08-19T00:42:05;17.30;99.90
55693;DHT22;41590;53.366;5.212;2022-08-19T00:47:53;17.30;99.90
55693;DHT22;41590;53.366;5.212;2022-08-19T00:50:30;17.30;99.90
55693;DHT22;41590;53.366;5.212;2022-08-19T00:52:57;17.30;99.90
55693;DHT22;41590;53.366;5.212;2022-08-19T00:55:26;17.20;99.90
55693;DHT22;41590;53.366;5.212;2022-08-19T00:58:15;17.20;99.90
55693;DHT22;41590;53.366;5.212;2022-08-19T01:00:41;17.20;99.90
55693;DHT22;41590;53.366;5.212;2022-08-19T01:18:20;17.30;99.90
55693;DHT22;41590;53.366;5.212;2022-08-19T01:20:49;17.20;99.90
55693;DHT22;41590;53.366;5.212;2022-08-19T01:23:47;17.30;99.90
55693;DHT22;41590;53.366;5.212;2022-08-19T01:33:07;17.30;99.90
55693;DHT22;41590;53.366;5.212;2022-08-19T01:35:38;17.40;99.90
55693;DHT22;41590;53.366;5.212;2022-08-19T01:45:26;17.20;99.90
55693;DHT22;41590;53.366;5.212;2022-08-19T01:48:06;17.30;99.90
55693;DHT22;41590;53.366;5.212;2022-08-19T01:54:23;17.10;99.90
55693;DHT22;41590;53.366;5.212;2022-08-19T01:57:23;17.30;99.90
55693;DHT22;41590;53.366;5.212;2022-08-19T02:00:20;17.30;99.90
55693;DHT22;41590;53.366;5.212;2022-08-19T02:03:28;17.30;99.90
55693;DHT22;41590;53.366;5.212;2022-08-19T02:09:12;17.40;99.90
55693;DHT22;41590;53.366;5.212;2022-08-19T02:46:32;17.40;99.90
55693;DHT22;41590;53.366;5.212;2022-08-19T02:49:05;17.40;99.90
55693;DHT22;41590;53.366;5.212;2022-08-19T02:51:47;17.40;99.90
55693;DHT22;41590;53.366;5.212;2022-08-19T02:54:16;17.40;99.90
55693;DHT22;41590;53.366;5.212;2022-08-19T02:56:49;17.40;99.90
55693;DHT22;41590;53.366;5.212;2022-08-19T02:59:30;17.40;99.90
55693;DHT22;41590;53.366;5.212;2022-08-19T03:01:55;17.50;99.90
55693;DHT22;41590;53.366;5.212;2022-08-19T03:08:05;17.60;99.90
55693;DHT22;41590;53.366;5.212;2022-08-19T03:19:33;17.60;99.90
55693;DHT22;41590;53.366;5.212;2022-08-19T03:22:19;17.60;99.90
55693;DHT22;41590;53.366;5.212;2022-08-19T03:24:50;17.60;99.90
55693;DHT22;41590;53.366;5.212;2022-08-19T03:27:22;17.60;99.90
55693;DHT22;41590;53.366;5.212;2022-08-19T03:29:51;17.70;99.90
55693;DHT22;41590;53.366;5.212;2022-08-19T03:32:32;17.70;99.90
55693;DHT22;41590;53.366;5.212;2022-08-19T03:35:03;17.70;99.90
55693;DHT22;41590;53.366;5.212;2022-08-19T03:37:39;17.70;99.90
55693;DHT22;41590;53.366;5.212;2022-08-19T03:43:50;17.80;99.90
55693;DHT22;41590;53.366;5.212;2022-08-19T04:26:38;18.00;99.90
55693;DHT22;41590;53.366;5.212;2022-08-19T04:55:12;18.40;99.90
55693;DHT22;41590;53.366;5.212;2022-08-19T04:57:59;18.40;99.90
55693;DHT22;41590;53.366;5.212;2022-08-19T05:08:42;18.40;99.90
55693;DHT22;41590;53.366;5.212;2022-08-19T05:22:02;18.20;99.90
55693;DHT22;41590;53.366;5.212;2022-08-19T05:24:47;18.60;99.90
55693;DHT22;41590;53.366;5.212;2022-08-19T05:27:32;18.80;99.90
55693;DHT22;41590;53.366;5.212;2022-08-19T05:29:58;18.90;99.90
55693;DHT22;41590;53.366;5.212;2022-08-19T05:32:27;19.00;99.90
55693;DHT22;41590;53.366;5.212;2022-08-19T05:35:36;19.00;99.90
55693;DHT22;41590;53.366;5.212;2022-08-19T05:40:54;19.30;99.90
55693;DHT22;41590;53.366;5.212;2022-08-19T05:47:07;19.50;99.90
55693;DHT22;41590;53.366;5.212;2022-08-19T05:49:35;19.60;99.90
55693;DHT22;41590;53.366;5.212;2022-08-19T05:52:09;19.70;99.90
55693;DHT22;41590;53.366;5.212;2022-08-19T05:54:40;19.80;99.90
55693;DHT22;41590;53.366;5.212;2022-08-19T05:57:11;19.80;99.90
55693;DHT22;41590;53.366;5.212;2022-08-19T05:59:48;19.90;99.90
55693;DHT22;41590;53.366;5.212;2022-08-19T06:02:16;20.00;99.90
55693;DHT22;41590;53.366;5.212;2022-08-19T06:04:59;20.10;99.90
55693;DHT22;41590;53.366;5.212;2022-08-19T06:07:29;20.10;99.90
55693;DHT22;41590;53.366;5.212;2022-08-19T06:09:59;20.30;99.90
55693;DHT22;41590;53.366;5.212;2022-08-19T06:15:46;20.40;99.90
55693;DHT22;41590;53.366;5.212;2022-08-19T06:18:16;20.50;99.90
55693;DHT22;41590;53.366;5.212;2022-08-19T06:20:46;20.50;99.90
55693;DHT22;41590;53.366;5.212;2022-08-19T06:23:19;20.60;99.90
55693;DHT22;41590;53.366;5.212;2022-08-19T06:25:52;20.60;99.90
55693;DHT22;41590;53.366;5.212;2022-08-19T06:31:25;21.00;99.90
55693;DHT22;41590;53.366;5.212;2022-08-19T06:39:14;21.00;99.90
55693;DHT22;41590;53.366;5.212;2022-08-19T06:45:25;21.10;99.90
55693;DHT22;41590;53.366;5.212;2022-08-19T06:48:31;21.20;99.90
55693;DHT22;41590;53.366;5.212;2022-08-19T06:51:42;21.50;99.90
55693;DHT22;41590;53.366;5.212;2022-08-19T06:54:30;21.30;99.90
55693;DHT22;41590;53.366;5.212;2022-08-19T06:57:20;21.40;99.90
55693;DHT22;41590;53.366;5.212;2022-08-19T07:03:32;21.50;99.90
55693;DHT22;41590;53.366;5.212;2022-08-19T07:06:18;21.50;99.90
55693;DHT22;41590;53.366;5.212;2022-08-19T07:09:18;21.50;99.90
55693;DHT22;41590;53.366;5.212;2022-08-19T07:23:01;21.80;99.90
55693;DHT22;41590;53.366;5.212;2022-08-19T07:29:32;22.00;99.90
55693;DHT22;41590;53.366;5.212;2022-08-19T07:40:15;22.30;99.90
55693;DHT22;41590;53.366;5.212;2022-08-19T08:15:38;22.70;99.90
55693;DHT22;41590;53.366;5.212;2022-08-19T08:21:37;23.10;99.90
55693;DHT22;41590;53.366;5.212;2022-08-19T08:24:03;23.20;99.90
55693;DHT22;41590;53.366;5.212;2022-08-19T08:26:32;23.20;99.90
55693;DHT22;41590;53.366;5.212;2022-08-19T08:28:59;23.10;99.90
55693;DHT22;41590;53.366;5.212;2022-08-19T08:31:25;23.10;99.90
55693;DHT22;41590;53.366;5.212;2022-08-19T08:33:50;23.10;99.90
55693;DHT22;41590;53.366;5.212;2022-08-19T08:36:17;23.00;99.90
55693;DHT22;41590;53.366;5.212;2022-08-19T08:38:45;23.00;99.90
55693;DHT22;41590;53.366;5.212;2022-08-19T08:44:11;23.20;99.90
55693;DHT22;41590;53.366;5.212;2022-08-19T08:46:44;23.30;99.90
55693;DHT22;41590;53.366;5.212;2022-08-19T08:49:51;23.30;99.90
55693;DHT22;41590;53.366;5.212;2022-08-19T08:52:26;23.40;99.90
55693;DHT22;41590;53.366;5.212;2022-08-19T08:55:32;23.50;99.90
55693;DHT22;41590;53.366;5.212;2022-08-19T08:58:01;23.50;99.90
55693;DHT22;41590;53.366;5.212;2022-08-19T09:00:32;23.40;99.90
55693;DHT22;41590;53.366;5.212;2022-08-19T09:03:25;23.40;99.90
55693;DHT22;41590;53.366;5.212;2022-08-19T09:06:25;23.50;99.90
55693;DHT22;41590;53.366;5.212;2022-08-19T09:14:26;24.10;99.90
55693;DHT22;41590;53.366;5.212;2022-08-19T09:16:57;24.10;99.90
55693;DHT22;41590;53.366;5.212;2022-08-19T09:19:24;24.20;99.90
55693;DHT22;41590;53.366;5.212;2022-08-19T09:21:51;24.20;99.90
55693;DHT22;41590;53.366;5.212;2022-08-19T09:24:19;24.30;99.90
55693;DHT22;41590;53.366;5.212;2022-08-19T09:26:46;24.40;99.90
55693;DHT22;41590;53.366;5.212;2022-08-19T09:29:12;24.50;99.90
55693;DHT22;41590;53.366;5.212;2022-08-19T09:31:44;24.60;99.90
55693;DHT22;41590;53.366;5.212;2022-08-19T09:34:11;24.70;99.90
55693;DHT22;41590;53.366;5.212;2022-08-19T09:36:37;24.80;99.90
55693;DHT22;41590;53.366;5.212;2022-08-19T09:39:05;24.70;99.90
55693;DHT22;41590;53.366;5.212;2022-08-19T09:41:32;24.70;99.90
55693;DHT22;41590;53.366;5.212;2022-08-19T09:43:59;24.80;99.90
55693;DHT22;41590;53.366;5.212;2022-08-19T09:46:29;24.90;99.90
55693;DHT22;41590;53.366;5.212;2022-08-19T09:49:02;25.20;99.90
55693;DHT22;41590;53.366;5.212;2022-08-19T09:51:35;25.50;99.90
55693;DHT22;41590;53.366;5.212;2022-08-19T09:54:26;25.90;99.90
55693;DHT22;41590;53.366;5.212;2022-08-19T09:56:53;25.80;99.90
55693;DHT22;41590;53.366;5.212;2022-08-19T09:59:19;25.80;99.90
55693;DHT22;41590;53.366;5.212;2022-08-19T10:02:00;25.80;99.90
55693;DHT22;41590;53.366;5.212;2022-08-19T10:07:50;25.90;99.90
55693;DHT22;41590;53.366;5.212;2022-08-19T10:10:15;25.80;99.90
55693;DHT22;41590;53.366;5.212;2022-08-19T10:12:41;25.80;99.90
55693;DHT22;41590;53.366;5.212;2022-08-19T10:15:13;25.80;99.90
55693;DHT22;41590;53.366;5.212;2022-08-19T10:17:56;25.80;99.90
55693;DHT22;41590;53.366;5.212;2022-08-19T10:20:39;25.70;99.90
55693;DHT22;41590;53.366;5.212;2022-08-19T10:23:44;25.70;99.90
55693;DHT22;41590;53.366;5.212;2022-08-19T10:26:13;25.70;99.90
55693;DHT22;41590;53.366;5.212;2022-08-19T10:29:05;25.50;99.90
55693;DHT22;41590;53.366;5.212;2022-08-19T10:32:09;25.60;99.90
55693;DHT22;41590;53.366;5.212;2022-08-19T10:49:11;25.30;99.90
55693;DHT22;41590;53.366;5.212;2022-08-19T10:55:52;25.30;99.90
55693;DHT22;41590;53.366;5.212;2022-08-19T11:02:57;25.00;99.90
55693;DHT22;41590;53.366;5.212;2022-08-19T11:36:40;24.70;99.90
55693;DHT22;41590;53.366;5.212;2022-08-19T11:42:27;24.90;99.90
55693;DHT22;41590;53.366;5.212;2022-08-19T11:45:32;24.90;99.90
55693;DHT22;41590;53.366;5.212;2022-08-19T11:48:03;25.00;99.90
55693;DHT22;41590;53.366;5.212;2022-08-19T11:50:37;25.00;99.90
55693;DHT22;41590;53.366;5.212;2022-08-19T11:56:46;24.70;99.90
55693;DHT22;41590;53.366;5.212;2022-08-19T11:59:21;24.70;99.90
55693;DHT22;41590;53.366;5.212;2022-08-19T12:01:47;24.70;99.90
55693;DHT22;41590;53.366;5.212;2022-08-19T12:04:13;24.80;99.90
55693;DHT22;41590;53.366;5.212;2022-08-19T12:06:40;25.00;99.90
55693;DHT22;41590;53.366;5.212;2022-08-19T12:09:07;25.10;99.90
55693;DHT22;41590;53.366;5.212;2022-08-19T12:11:37;25.30;99.90
55693;DHT22;41590;53.366;5.212;2022-08-19T12:14:10;25.30;99.90
55693;DHT22;41590;53.366;5.212;2022-08-19T12:16:39;25.30;99.90
55693;DHT22;41590;53.366;5.212;2022-08-19T12:22:32;25.60;99.90
55693;DHT22;41590;53.366;5.212;2022-08-19T12:25:00;25.70;99.90
55693;DHT22;41590;53.366;5.212;2022-08-19T12:27:37;25.80;99.90
55693;DHT22;41590;53.366;5.212;2022-08-19T12:30:04;26.00;99.90
55693;DHT22;41590;53.366;5.212;2022-08-19T12:32:34;26.00;99.90
55693;DHT22;41590;53.366;5.212;2022-08-19T12:34:59;25.80;99.90
55693;DHT22;41590;53.366;5.212;2022-08-19T12:37:35;25.70;99.90
55693;DHT22;41590;53.366;5.212;2022-08-19T12:40:08;25.60;99.90
55693;DHT22;41590;53.366;5.212;2022-08-19T12:43:00;25.60;99.90
55693;DHT22;41590;53.366;5.212;2022-08-19T12:45:28;25.70;99.90
55693;DHT22;41590;53.366;5.212;2022-08-19T12:48:12;25.80;99.90
55693;DHT22;41590;53.366;5.212;2022-08-19T12:50:45;25.90;99.90
55693;DHT22;41590;53.366;5.212;2022-08-19T12:53:23;25.70;99.90
55693;DHT22;41590;53.366;5.212;2022-08-19T12:55:55;25.70;99.90
55693;DHT22;41590;53.366;5.212;2022-08-19T13:02:06;25.70;99.90
55693;DHT22;41590;53.366;5.212;2022-08-19T13:04:34;25.60;99.90
55693;DHT22;41590;53.366;5.212;2022-08-19T13:07:02;25.70;99.90
55693;DHT22;41590;53.366;5.212;2022-08-19T13:09:28;25.60;99.90
55693;DHT22;41590;53.366;5.212;2022-08-19T13:12:00;25.60;99.90
55693;DHT22;41590;53.366;5.212;2022-08-19T13:14:42;25.70;99.90
55693;DHT22;41590;53.366;5.212;2022-08-19T13:17:11;25.70;99.90
55693;DHT22;41590;53.366;5.212;2022-08-19T13:19:40;25.60;99.90
55693;DHT22;41590;53.366;5.212;2022-08-19T13:22:06;25.50;99.90
55693;DHT22;41590;53.366;5.212;2022-08-19T13:24:59;25.40;99.90
55693;DHT22;41590;53.366;5.212;2022-08-19T13:27:36;25.40;99.90
55693;DHT22;41590;53.366;5.212;2022-08-19T13:30:04;25.30;99.90
55693;DHT22;41590;53.366;5.212;2022-08-19T13:32:49;25.30;99.90
55693;DHT22;41590;53.366;5.212;2022-08-19T13:35:34;25.00;99.90
55693;DHT22;41590;53.366;5.212;2022-08-19T13:38:14;25.10;99.90
55693;DHT22;41590;53.366;5.212;2022-08-19T13:40:53;25.20;99.90
55693;DHT22;41590;53.366;5.212;2022-08-19T13:43:26;25.30;99.90
55693;DHT22;41590;53.366;5.212;2022-08-19T13:45:55;25.20;99.90
55693;DHT22;41590;53.366;5.212;2022-08-19T13:48:25;25.10;99.90
55693;DHT22;41590;53.366;5.212;2022-08-19T13:51:04;25.20;99.90
55693;DHT22;41590;53.366;5.212;2022-08-19T13:53:34;24.90;99.90
55693;DHT22;41590;53.366;5.212;2022-08-19T13:56:05;24.90;99.90
55693;DHT22;41590;53.366;5.212;2022-08-19T13:58:32;24.90;99.90
55693;DHT22;41590;53.366;5.212;2022-08-19T14:00:58;24.90;99.90
55693;DHT22;41590;53.366;5.212;2022-08-19T14:03:25;25.10;99.90
55693;DHT22;41590;53.366;5.212;2022-08-19T14:05:51;25.10;99.90
55693;DHT22;41590;53.366;5.212;2022-08-19T14:08:20;25.20;99.90
55693;DHT22;41590;53.366;5.212;2022-08-19T14:10:46;25.00;99.90
55693;DHT22;41590;53.366;5.212;2022-08-19T14:13:19;24.90;99.90
55693;DHT22;41590;53.366;5.212;2022-08-19T14:15:46;24.80;99.90
55693;DHT22;41590;53.366;5.212;2022-08-19T14:18:19;24.90;99.90
55693;DHT22;41590;53.366;5.212;2022-08-19T14:20:45;25.20;99.90
55693;DHT22;41590;53.366;5.212;2022-08-19T14:26:57;25.40;99.90
55693;DHT22;41590;53.366;5.212;2022-08-19T14:29:23;25.50;99.90
55693;DHT22;41590;53.366;5.212;2022-08-19T14:31:49;25.50;99.90
55693;DHT22;41590;53.366;5.212;2022-08-19T14:34:14;25.60;99.90
55693;DHT22;41590;53.366;5.212;2022-08-19T14:36:40;25.50;99.90
55693;DHT22;41590;53.366;5.212;2022-08-19T14:39:07;25.20;99.90
55693;DHT22;41590;53.366;5.212;2022-08-19T14:41:41;25.30;99.90
55693;DHT22;41590;53.366;5.212;2022-08-19T14:44:08;25.20;99.90
55693;DHT22;41590;53.366;5.212;2022-08-19T14:46:38;25.10;99.90
55693;DHT22;41590;53.366;5.212;2022-08-19T14:49:15;25.00;99.90
55693;DHT22;41590;53.366;5.212;2022-08-19T14:52:12;25.00;99.90
55693;DHT22;41590;53.366;5.212;2022-08-19T14:54:38;24.80;99.90
55693;DHT22;41590;53.366;5.212;2022-08-19T14:57:12;24.70;99.90
55693;DHT22;41590;53.366;5.212;2022-08-19T15:03:22;24.80;99.90
55693;DHT22;41590;53.366;5.212;2022-08-19T15:06:02;24.70;99.90
55693;DHT22;41590;53.366;5.212;2022-08-19T15:08:38;24.70;99.90
55693;DHT22;41590;53.366;5.212;2022-08-19T15:11:16;24.60;99.90
55693;DHT22;41590;53.366;5.212;2022-08-19T15:13:51;24.50;99.90
55693;DHT22;41590;53.366;5.212;2022-08-19T15:16:28;24.60;99.90
55693;DHT22;41590;53.366;5.212;2022-08-19T15:19:04;24.50;99.90
55693;DHT22;41590;53.366;5.212;2022-08-19T15:25:35;24.50;99.90
55693;DHT22;41590;53.366;5.212;2022-08-19T15:28:17;24.50;99.90
55693;DHT22;41590;53.366;5.212;2022-08-19T15:30:47;24.50;99.90
55693;DHT22;41590;53.366;5.212;2022-08-19T15:33:35;24.30;99.90
55693;DHT22;41590;53.366;5.212;2022-08-19T15:36:40;24.50;99.90
55693;DHT22;41590;53.366;5.212;2022-08-19T15:39:15;24.40;99.90
55693;DHT22;41590;53.366;5.212;2022-08-19T15:41:52;24.30;99.90
55693;DHT22;41590;53.366;5.212;2022-08-19T15:44:44;24.20;99.90
55693;DHT22;41590;53.366;5.212;2022-08-19T15:54:41;23.60;99.90
55693;DHT22;41590;53.366;5.212;2022-08-19T15:57:16;23.50;99.90
55693;DHT22;41590;53.366;5.212;2022-08-19T16:03:35;23.50;99.90
55693;DHT22;41590;53.366;5.212;2022-08-19T16:06:33;23.50;99.90
55693;DHT22;41590;53.366;5.212;2022-08-19T16:13:28;23.50;99.90
55693;DHT22;41590;53.366;5.212;2022-08-19T16:16:01;23.50;99.90
55693;DHT22;41590;53.366;5.212;2022-08-19T16:21:54;23.40;99.90
55693;DHT22;41590;53.366;5.212;2022-08-19T16:24:32;23.40;99.90
55693;DHT22;41590;53.366;5.212;2022-08-19T16:27:00;23.40;99.90
55693;DHT22;41590;53.366;5.212;2022-08-19T16:29:32;23.20;99.90
55693;DHT22;41590;53.366;5.212;2022-08-19T16:32:21;23.20;99.90
55693;DHT22;41590;53.366;5.212;2022-08-19T16:34:49;23.20;99.90
55693;DHT22;41590;53.366;5.212;2022-08-19T16:37:30;23.10;99.90
55693;DHT22;41590;53.366;5.212;2022-08-19T16:43:11;23.00;99.90
55693;DHT22;41590;53.366;5.212;2022-08-19T16:45:53;23.00;99.90
55693;DHT22;41590;53.366;5.212;2022-08-19T16:48:28;23.00;99.90
55693;DHT22;41590;53.366;5.212;2022-08-19T16:51:26;23.00;99.90
55693;DHT22;41590;53.366;5.212;2022-08-19T16:53:56;22.80;99.90
55693;DHT22;41590;53.366;5.212;2022-08-19T16:56:25;22.70;99.90
55693;DHT22;41590;53.366;5.212;2022-08-19T16:58:56;22.60;99.90
55693;DHT22;41590;53.366;5.212;2022-08-19T17:01:33;22.50;99.90
55693;DHT22;41590;53.366;5.212;2022-08-19T17:04:02;22.40;99.90
55693;DHT22;41590;53.366;5.212;2022-08-19T17:06:56;22.40;99.90
55693;DHT22;41590;53.366;5.212;2022-08-19T17:09:38;22.30;99.90
55693;DHT22;41590;53.366;5.212;2022-08-19T17:12:24;22.30;99.90
55693;DHT22;41590;53.366;5.212;2022-08-19T17:18:27;22.20;99.90
55693;DHT22;41590;53.366;5.212;2022-08-19T17:21:07;22.30;99.90
55693;DHT22;41590;53.366;5.212;2022-08-19T17:23:41;22.30;99.90
55693;DHT22;41590;53.366;5.212;2022-08-19T17:26:34;22.30;99.90
55693;DHT22;41590;53.366;5.212;2022-08-19T17:29:02;22.30;99.90
55693;DHT22;41590;53.366;5.212;2022-08-19T17:31:30;22.20;99.90
55693;DHT22;41590;53.366;5.212;2022-08-19T17:34:15;22.10;99.90
55693;DHT22;41590;53.366;5.212;2022-08-19T17:36:42;22.10;99.90
55693;DHT22;41590;53.366;5.212;2022-08-19T17:39:34;22.00;99.90
55693;DHT22;41590;53.366;5.212;2022-08-19T17:42:07;22.00;99.90
55693;DHT22;41590;53.366;5.212;2022-08-19T17:44:42;21.90;99.90
55693;DHT22;41590;53.366;5.212;2022-08-19T17:47:11;21.80;99.90
55693;DHT22;41590;53.366;5.212;2022-08-19T17:49:38;21.80;99.90
55693;DHT22;41590;53.366;5.212;2022-08-19T17:52:06;21.70;99.90
55693;DHT22;41590;53.366;5.212;2022-08-19T17:54:44;21.80;99.90
55693;DHT22;41590;53.366;5.212;2022-08-19T17:57:47;21.80;99.90
55693;DHT22;41590;53.366;5.212;2022-08-19T18:00:16;21.70;99.90
55693;DHT22;41590;53.366;5.212;2022-08-19T18:06:19;21.90;99.90
55693;DHT22;41590;53.366;5.212;2022-08-19T18:08:45;21.70;99.90
55693;DHT22;41590;53.366;5.212;2022-08-19T18:11:17;21.70;99.90
55693;DHT22;41590;53.366;5.212;2022-08-19T18:13:57;21.60;99.90
55693;DHT22;41590;53.366;5.212;2022-08-19T18:16:32;21.60;99.90
55693;DHT22;41590;53.366;5.212;2022-08-19T18:19:10;21.60;99.90
55693;DHT22;41590;53.366;5.212;2022-08-19T18:21:38;21.50;99.90
55693;DHT22;41590;53.366;5.212;2022-08-19T18:24:08;21.50;99.90
55693;DHT22;41590;53.366;5.212;2022-08-19T18:26:34;21.40;99.90
55693;DHT22;41590;53.366;5.212;2022-08-19T18:29:00;21.40;99.90
55693;DHT22;41590;53.366;5.212;2022-08-19T18:31:26;21.40;99.90
55693;DHT22;41590;53.366;5.212;2022-08-19T18:33:55;21.40;99.90
55693;DHT22;41590;53.366;5.212;2022-08-19T18:36:25;21.30;99.90
55693;DHT22;41590;53.366;5.212;2022-08-19T18:38:55;21.30;99.90
55693;DHT22;41590;53.366;5.212;2022-08-19T18:41:56;21.20;99.90
55693;DHT22;41590;53.366;5.212;2022-08-19T18:47:55;21.00;99.90
55693;DHT22;41590;53.366;5.212;2022-08-19T18:54:25;20.90;99.90
55693;DHT22;41590;53.366;5.212;2022-08-19T18:56:59;20.80;99.90
55693;DHT22;41590;53.366;5.212;2022-08-19T18:59:43;20.70;99.90
55693;DHT22;41590;53.366;5.212;2022-08-19T19:02:35;20.60;99.90
55693;DHT22;41590;53.366;5.212;2022-08-19T19:05:14;20.50;99.90
55693;DHT22;41590;53.366;5.212;2022-08-19T19:07:50;20.50;99.90
55693;DHT22;41590;53.366;5.212;2022-08-19T19:10:17;20.40;99.90
55693;DHT22;41590;53.366;5.212;2022-08-19T19:12:48;20.30;99.90
55693;DHT22;41590;53.366;5.212;2022-08-19T19:15:34;20.30;99.90
55693;DHT22;41590;53.366;5.212;2022-08-19T19:18:06;20.20;99.90
55693;DHT22;41590;53.366;5.212;2022-08-19T19:20:41;20.20;99.90
55693;DHT22;41590;53.366;5.212;2022-08-19T19:23:20;20.20;99.90
55693;DHT22;41590;53.366;5.212;2022-08-19T19:26:12;20.20;99.90
55693;DHT22;41590;53.366;5.212;2022-08-19T19:29:08;20.10;99.90
55693;DHT22;41590;53.366;5.212;2022-08-19T19:31:52;20.10;99.90
55693;DHT22;41590;53.366;5.212;2022-08-19T19:34:22;20.00;99.90
55693;DHT22;41590;53.366;5.212;2022-08-19T19:37:13;20.00;99.90
55693;DHT22;41590;53.366;5.212;2022-08-19T19:39:40;20.00;99.90
55693;DHT22;41590;53.366;5.212;2022-08-19T19:42:09;19.80;99.90
55693;DHT22;41590;53.366;5.212;2022-08-19T19:47:54;19.70;99.90
55693;DHT22;41590;53.366;5.212;2022-08-19T19:50:45;19.60;99.90
55693;DHT22;41590;53.366;5.212;2022-08-19T19:53:25;19.50;99.90
55693;DHT22;41590;53.366;5.212;2022-08-19T19:56:14;19.40;99.90
55693;DHT22;41590;53.366;5.212;2022-08-19T19:58:52;19.30;99.90
55693;DHT22;41590;53.366;5.212;2022-08-19T20:01:35;19.20;99.90
55693;DHT22;41590;53.366;5.212;2022-08-19T20:04:07;19.10;99.90
55693;DHT22;41590;53.366;5.212;2022-08-19T20:10:16;19.00;99.90
55693;DHT22;41590;53.366;5.212;2022-08-19T20:13:12;18.80;99.90
55693;DHT22;41590;53.366;5.212;2022-08-19T20:15:40;18.70;99.90
55693;DHT22;41590;53.366;5.212;2022-08-19T20:18:28;18.60;99.90
55693;DHT22;41590;53.366;5.212;2022-08-19T20:20:55;18.60;99.90
55693;DHT22;41590;53.366;5.212;2022-08-19T20:23:47;18.50;99.90
55693;DHT22;41590;53.366;5.212;2022-08-19T20:26:26;18.40;99.90
55693;DHT22;41590;53.366;5.212;2022-08-19T20:28:56;18.40;99.90
55693;DHT22;41590;53.366;5.212;2022-08-19T20:31:32;18.30;99.90
55693;DHT22;41590;53.366;5.212;2022-08-19T20:37:34;18.30;99.90
55693;DHT22;41590;53.366;5.212;2022-08-19T20:40:16;18.20;99.90
55693;DHT22;41590;53.366;5.212;2022-08-19T20:42:46;18.20;99.90
55693;DHT22;41590;53.366;5.212;2022-08-19T20:45:19;18.10;99.90
55693;DHT22;41590;53.366;5.212;2022-08-19T20:51:12;18.10;99.90
55693;DHT22;41590;53.366;5.212;2022-08-19T20:53:47;18.00;99.90
55693;DHT22;41590;53.366;5.212;2022-08-19T20:56:38;17.90;99.90
55693;DHT22;41590;53.366;5.212;2022-08-19T20:59:10;17.90;99.90
55693;DHT22;41590;53.366;5.212;2022-08-19T21:02:14;17.90;99.90
55693;DHT22;41590;53.366;5.212;2022-08-19T21:12:49;17.70;99.90
55693;DHT22;41590;53.366;5.212;2022-08-19T21:38:52;17.30;99.90
55693;DHT22;41590;53.366;5.212;2022-08-19T21:49:00;17.20;99.90
55693;DHT22;41590;53.366;5.212;2022-08-19T21:51:54;17.20;99.90
55693;DHT22;41590;53.366;5.212;2022-08-19T22:02:13;17.00;99.90
55693;DHT22;41590;53.366;5.212;2022-08-19T22:04:58;16.80;99.90
55693;DHT22;41590;53.366;5.212;2022-08-19T22:07:45;16.80;99.90
55693;DHT22;41590;53.366;5.212;2022-08-19T22:21:35;16.60;99.90
55693;DHT22;41590;53.366;5.212;2022-08-19T22:41:37;16.80;99.90
55693;DHT22;41590;53.366;5.212;2022-08-19T22:47:42;17.00;99.90
55693;DHT22;41590;53.366;5.212;2022-08-19T22:50:14;17.10;99.90
55693;DHT22;41590;53.366;5.212;2022-08-19T22:53:03;17.20;99.90
55693;DHT22;41590;53.366;5.212;2022-08-19T22:55:56;17.30;99.90
55693;DHT22;41590;53.366;5.212;2022-08-19T23:01:14;17.40;99.90
55693;DHT22;41590;53.366;5.212;2022-08-19T23:03:40;17.40;99.90
55693;DHT22;41590;53.366;5.212;2022-08-19T23:06:09;17.40;99.90
55693;DHT22;41590;53.366;5.212;2022-08-19T23:08:36;17.40;99.90
55693;DHT22;41590;53.366;5.212;2022-08-19T23:11:14;17.40;99.90
55693;DHT22;41590;53.366;5.212;2022-08-19T23:13:42;17.40;99.90
55693;DHT22;41590;53.366;5.212;2022-08-19T23:16:08;17.40;99.90
55693;DHT22;41590;53.366;5.212;2022-08-19T23:18:33;17.30;99.90
55693;DHT22;41590;53.366;5.212;2022-08-19T23:21:00;17.30;99.90
55693;DHT22;41590;53.366;5.212;2022-08-19T23:23:28;17.20;99.90
55693;DHT22;41590;53.366;5.212;2022-08-19T23:26:05;17.20;99.90
55693;DHT22;41590;53.366;5.212;2022-08-19T23:28:36;17.20;99.90
55693;DHT22;41590;53.366;5.212;2022-08-19T23:31:20;17.10;99.90
55693;DHT22;41590;53.366;5.212;2022-08-19T23:33:47;17.10;99.90
55693;DHT22;41590;53.366;5.212;2022-08-19T23:36:21;17.00;99.90
55693;DHT22;41590;53.366;5.212;2022-08-19T23:38:48;17.00;99.90
55693;DHT22;41590;53.366;5.212;2022-08-19T23:41:20;17.00;99.90
55693;DHT22;41590;53.366;5.212;2022-08-19T23:43:46;17.00;99.90
55693;DHT22;41590;53.366;5.212;2022-08-19T23:46:15;17.00;99.90
55693;DHT22;41590;53.366;5.212;2022-08-19T23:48:48;17.00;99.90
55693;DHT22;41590;53.366;5.212;2022-08-19T23:51:19;17.10;99.90
55693;DHT22;41590;53.366;5.212;2022-08-19T23:53:45;17.10;99.90
55693;DHT22;41590;53.366;5.212;2022-08-19T23:56:18;17.20;99.90
55693;DHT22;41590;53.366;5.212;2022-08-19T23:58:44;17.20;99.90
